Chenoa, IL (61726)

7:36 PM CST on January 25, 2015 (GMT -0600)
Pontiac Municipal | Change Station
CLOSE
Current Station
Airport
Location: Pontiac,
Elevation: 659 ft
Nearby Weather Stations

Elev 659 ft 40.92 °N, 88.62 °W | Updated 21 minutes ago

Overcast
Overcast
30 °F
Feels Like 17 °F
N
18
Wind Variable Wind from NNE
Gusts 24 mph

Today
High -- | Low -- °F
--% Chance of Precip.
Yesterday
High -- | Low -- °F
Precip. -- in
7:11 AM 5:03 PM
Waxing Crescent, 37% visible
Pressure 29.94 in
Visibility 10.0 miles
Clouds Scattered Clouds 4000 ft
Overcast 4900 ft
Windchill 17 °F
Dew Point 25 °F
Humidity 82%
Rainfall 0.28 in
Snow Depth Not available.
UV 0 out of 12
Pollen .10 out of 12
Air Quality Not available.
Flu Activity Not available.
METAR KPNT 260115Z AUTO 03016G21KT 10SM SCT040 OVC049 M01/M04 A2994 RMK AO2 T10141041

More Conditions Fewer Conditions

Pressure 29.94 in
Visibility 10.0 miles
Clouds Scattered Clouds 4000 ft
Overcast 4900 ft
Windchill 17 °F
Dew Point 25 °F
Humidity 82%
Rainfall 0.28 in
Snow Depth Not available.
UV 0 out of 12
Pollen .10 out of 12
Air Quality Not available.
Flu Activity Not available.
METAR KPNT 260115Z AUTO 03016G21KT 10SM SCT040 OVC049 M01/M04 A2994 RMK AO2 T10141041

More Conditions Fewer Conditions

10-Day Weather Forecast

Almanac

Astronomy

Jan. 25, 2015 Rise Set
Actual Time
Civil Twilight
Nautical Twilight
Astronomical Twilight
Moon
Length of Visible Light
Length of Day
Tomorrow will be .
, % of the Moon is Illuminated

Today's Extremes

State Highs State Lows

Community

WunderPhotos

Upload Photos

1,790,039 photos uploaded!

WunderBlogs® & News

Nearby

Air Quality

  Air Quality AQ Index Pollutant
Not available.

Snow Depth

Station Depth Elevation

Earthquake Activity

City Distance Mag. Time & Date
Minimum magnitude displayed is 2.5.

Coastal Water Temperatures

Place Temperature

Nearby Weather Stations